Time;durP1;ratioP1;P1;durP2;ratioP2;P2;SDS_P1;SDS_P2;PMS_P1;PMS_P2;Temp;Humidity;BMP_temperature;BMP_pressure;BME280_temperature;BME280_humidity;BME280_pressure;Samples;Min_cycle;Max_cycle;Signal;HPM_P1;HPM_P2
2022/01/23 00:02:25;;;;;;;9.60;7.65;;;1.30;70.40;;;;;;5092286;28;20361;-61
2022/01/23 00:04:51;;;;;;;8.60;7.70;;;1.30;70.60;;;;;;5078469;28;20077;-61
2022/01/23 00:07:16;;;;;;;8.35;5.63;;;1.30;70.40;;;;;;5094181;28;20102;-61
2022/01/23 00:09:43;;;;;;;11.55;8.38;;;1.30;70.40;;;;;;5094325;28;20031;-61
2022/01/23 00:12:14;;;;;;;9.45;7.53;;;1.30;70.60;;;;;;5087084;28;20024;-61
2022/01/23 00:17:25;;;;;;;8.55;7.10;;;1.20;70.30;;;;;;5093934;28;20039;-61
2022/01/23 00:19:57;;;;;;;7.72;4.75;;;1.20;70.50;;;;;;5087615;28;20032;-61
2022/01/23 00:22:31;;;;;;;8.50;7.03;;;1.20;70.40;;;;;;5092913;28;20039;-61
2022/01/23 00:30:29;;;;;;;8.52;7.60;;;1.10;70.70;;;;;;5092431;28;20430;-61
2022/01/23 00:32:57;;;;;;;9.25;7.72;;;1.20;70.60;;;;;;5079172;28;20032;-61
2022/01/23 00:35:24;;;;;;;10.65;7.97;;;1.20;70.40;;;;;;5093107;28;20032;-60
2022/01/23 00:37:50;;;;;;;10.80;8.23;;;1.20;70.30;;;;;;5091625;28;20095;-61
2022/01/23 00:40:16;;;;;;;9.68;8.23;;;1.20;70.40;;;;;;5092797;28;20132;-61
2022/01/23 00:42:42;;;;;;;9.63;8.63;;;1.20;70.40;;;;;;5090875;28;20088;-61
2022/01/23 00:47:58;;;;;;;10.00;8.70;;;1.20;70.20;;;;;;5082043;28;20031;-61
2022/01/23 00:50:24;;;;;;;10.35;6.15;;;1.10;70.20;;;;;;5092927;28;20032;-61
2022/01/23 00:52:50;;;;;;;9.50;8.35;;;1.10;70.20;;;;;;5091956;28;20094;-61
2022/01/23 00:55:16;;;;;;;11.63;8.43;;;1.10;70.50;;;;;;5092676;28;20024;-61
2022/01/23 00:57:41;;;;;;;9.15;8.18;;;1.10;70.40;;;;;;5092555;28;20440;-61
2022/01/23 01:00:09;;;;;;;9.02;5.97;;;1.00;70.40;;;;;;5099057;28;20028;-61
2022/01/23 01:02:35;;;;;;;6.78;5.18;;;0.90;70.40;;;;;;5086866;28;20024;-61
2022/01/23 01:05:01;;;;;;;8.27;5.28;;;0.90;70.70;;;;;;5095967;28;20021;-61
2022/01/23 01:07:26;;;;;;;7.43;4.93;;;0.80;70.90;;;;;;5091348;28;20462;-61
2022/01/23 01:09:54;;;;;;;9.15;7.65;;;0.80;71.10;;;;;;5091105;28;20020;-61
2022/01/23 01:12:25;;;;;;;8.93;7.93;;;0.80;71.30;;;;;;5092242;28;20039;-60
2022/01/23 01:17:32;;;;;;;7.43;5.38;;;0.90;71.10;;;;;;5092509;28;20031;-60
2022/01/23 01:36:17;;;;;;;9.55;8.05;;;1.00;71.30;;;;;;5093264;28;20030;-61
2022/01/23 01:38:43;;;;;;;9.38;8.40;;;1.00;71.40;;;;;;5083173;28;20107;-61
2022/01/23 01:41:09;;;;;;;9.60;8.57;;;1.00;71.30;;;;;;5080308;28;20024;-61
2022/01/23 01:43:34;;;;;;;9.27;7.82;;;1.00;71.20;;;;;;5093025;28;20027;-61
2022/01/23 01:46:00;;;;;;;11.35;8.65;;;1.00;71.30;;;;;;5092618;28;20050;-61
2022/01/23 01:48:26;;;;;;;9.60;8.55;;;1.00;71.10;;;;;;5091246;28;20036;-61
2022/01/23 01:50:54;;;;;;;10.32;8.50;;;1.00;71.20;;;;;;5085427;28;20035;-61
2022/01/23 01:53:21;;;;;;;9.15;5.65;;;1.10;71.10;;;;;;5091541;28;20114;-60
2022/01/23 01:55:52;;;;;;;9.43;8.43;;;1.00;71.00;;;;;;5092530;28;20020;-61
2022/01/23 02:09:19;;;;;;;9.00;5.38;;;1.00;71.20;;;;;;5093150;28;20038;-61
2022/01/23 02:55:11;;;;;;;9.13;4.90;;;0.80;72.60;;;;;;5085124;28;20367;-62
2022/01/23 02:57:51;;;;;;;8.85;7.95;;;0.80;72.70;;;;;;5091116;28;20020;-62
2022/01/23 03:00:19;;;;;;;5.97;5.13;;;0.90;72.80;;;;;;5094512;28;20418;-61
2022/01/23 03:02:49;;;;;;;9.65;7.65;;;0.90;72.50;;;;;;5086747;28;20032;-61
2022/01/23 03:05:33;;;;;;;7.93;5.90;;;1.00;72.70;;;;;;5095359;28;20418;-61
2022/01/23 03:08:05;;;;;;;8.50;5.25;;;0.90;72.40;;;;;;5095442;28;20379;-62
2022/01/23 03:10:43;;;;;;;;;;;0.90;72.50;;;;;;5095983;28;20529;-61
2022/01/23 03:26:35;;;;;;;9.63;8.52;;;1.10;72.60;;;;;;5079853;28;20027;-61
2022/01/23 03:31:40;;;;;;;5.97;4.57;;;1.10;72.30;;;;;;5094439;28;20035;-62
2022/01/23 03:34:06;;;;;;;7.05;4.93;;;1.00;72.30;;;;;;5092983;28;20118;-61
2022/01/23 03:36:33;;;;;;;6.13;4.95;;;1.00;72.40;;;;;;5091737;28;20028;-62
2022/01/23 03:38:59;;;;;;;5.53;4.38;;;1.00;72.60;;;;;;5094537;28;20024;-62
2022/01/23 03:41:25;;;;;;;10.40;8.57;;;1.00;72.60;;;;;;5094488;28;20496;-62
2022/01/23 03:43:50;;;;;;;7.70;5.93;;;1.00;72.70;;;;;;5096062;28;20020;-61
2022/01/23 03:51:46;;;;;;;8.57;5.88;;;1.10;72.70;;;;;;5093825;28;20498;-61
2022/01/23 03:54:12;;;;;;;7.32;5.70;;;1.00;72.40;;;;;;5079179;28;20028;-62
2022/01/23 03:56:38;;;;;;;9.55;8.55;;;1.00;72.50;;;;;;5094587;28;20028;-62
2022/01/23 03:59:03;;;;;;;7.88;6.15;;;1.10;72.60;;;;;;5092589;28;20375;-62
2022/01/23 04:01:29;;;;;;;7.22;5.20;;;1.10;72.50;;;;;;5080466;28;20521;-62
2022/01/23 04:03:59;;;;;;;9.70;8.70;;;1.10;72.60;;;;;;5094264;28;20020;-62
2022/01/23 04:06:24;;;;;;;7.70;5.85;;;1.10;72.50;;;;;;5094100;28;20028;-62
2022/01/23 04:08:50;;;;;;;8.30;5.28;;;1.10;72.30;;;;;;5093077;28;20150;-62
2022/01/23 04:11:16;;;;;;;7.22;5.50;;;1.10;72.40;;;;;;5082349;28;20504;-62
2022/01/23 04:14:01;;;;;;;8.45;5.63;;;1.10;72.50;;;;;;5094268;28;20383;-62
2022/01/23 04:46:48;;;;;;;7.72;5.50;;;1.00;71.70;;;;;;5087794;28;20070;-62
2022/01/23 04:59:49;;;;;;;11.25;10.05;;;0.90;71.70;;;;;;5083927;28;20038;-61
2022/01/23 05:04:58;;;;;;;12.15;10.15;;;0.80;71.60;;;;;;5090912;28;20031;-60
2022/01/23 05:07:29;;;;;;;13.60;10.82;;;0.90;71.80;;;;;;5090187;28;20032;-61
2022/01/23 05:09:55;;;;;;;12.38;11.07;;;0.90;71.70;;;;;;5093415;28;20471;-62
2022/01/23 05:12:25;;;;;;;12.85;7.65;;;0.90;71.60;;;;;;5093221;28;20032;-61
2022/01/23 05:14:51;;;;;;;9.40;6.18;;;0.80;71.40;;;;;;5093181;28;20028;-61
2022/01/23 05:17:18;;;;;;;8.43;6.38;;;0.80;71.70;;;;;;5092869;28;20028;-61
2022/01/23 05:19:44;;;;;;;12.15;10.68;;;0.70;71.70;;;;;;5083603;28;20090;-62
2022/01/23 05:27:54;;;;;;;9.20;6.53;;;0.80;72.00;;;;;;5011037;28;20038;-61
2022/01/23 05:30:21;;;;;;;8.48;6.30;;;0.70;71.80;;;;;;5054202;28;20059;-61
2022/01/23 05:32:47;;;;;;;7.82;6.18;;;0.70;71.80;;;;;;5093146;28;20070;-62
2022/01/23 05:35:17;;;;;;;12.50;9.73;;;0.70;72.00;;;;;;5092139;28;20464;-61
2022/01/23 05:37:42;;;;;;;13.32;11.90;;;0.70;72.10;;;;;;5092243;28;20110;-61
2022/01/23 05:40:12;;;;;;;13.30;11.30;;;0.80;71.90;;;;;;5090570;28;20511;-62
2022/01/23 05:42:37;;;;;;;11.52;7.57;;;0.80;71.70;;;;;;5092925;28;20020;-62
2022/01/23 05:45:04;;;;;;;9.05;6.40;;;0.70;71.60;;;;;;5095280;28;20111;-61
2022/01/23 05:47:29;;;;;;;8.77;6.15;;;0.70;71.90;;;;;;5092833;28;20477;-62
2022/01/23 05:49:55;;;;;;;13.07;9.82;;;0.70;72.10;;;;;;5093229;28;20034;-61
2022/01/23 05:52:21;;;;;;;10.65;6.97;;;0.70;72.30;;;;;;5086108;28;20028;-62
2022/01/23 05:54:46;;;;;;;12.82;10.68;;;0.70;72.10;;;;;;5078519;28;20036;-62
2022/01/23 05:57:12;;;;;;;11.93;10.63;;;0.70;72.20;;;;;;5092556;28;20028;-61
2022/01/23 05:59:38;;;;;;;8.90;6.63;;;0.80;72.00;;;;;;5096314;28;20024;-62
2022/01/23 06:02:04;;;;;;;8.80;6.70;;;0.80;71.70;;;;;;5096373;28;20020;-60
2022/01/23 06:04:30;;;;;;;12.05;10.73;;;0.70;71.80;;;;;;5088360;28;20100;-61
2022/01/23 06:06:58;;;;;;;10.75;7.13;;;0.80;72.00;;;;;;5091322;28;20356;-61
2022/01/23 06:09:24;;;;;;;9.70;7.20;;;0.70;71.80;;;;;;5095566;28;20035;-61
2022/01/23 06:11:50;;;;;;;8.98;6.45;;;0.70;71.90;;;;;;5081379;28;20245;-61
2022/01/23 06:14:17;;;;;;;9.60;6.85;;;0.70;72.10;;;;;;5096282;28;20464;-62
2022/01/23 06:16:42;;;;;;;11.60;10.40;;;0.60;72.10;;;;;;5096363;28;20024;-62
2022/01/23 06:19:08;;;;;;;10.73;7.28;;;0.70;72.10;;;;;;5096254;28;20467;-62
2022/01/23 06:21:34;;;;;;;12.63;11.10;;;0.70;71.80;;;;;;5096027;28;20050;-62
2022/01/23 06:24:02;;;;;;;14.32;7.25;;;0.70;72.20;;;;;;5091458;28;20032;-62
2022/01/23 06:26:50;;;;;;;9.98;6.75;;;0.70;71.60;;;;;;5090481;28;20490;-61
2022/01/23 06:29:17;;;;;;;7.68;5.53;;;0.70;71.60;;;;;;5090074;28;20028;-61
2022/01/23 06:31:47;;;;;;;12.00;9.98;;;0.60;71.60;;;;;;5095973;28;20032;-62
2022/01/23 06:34:14;;;;;;;12.60;10.20;;;0.70;71.40;;;;;;5095847;28;20082;-62
2022/01/23 06:36:41;;;;;;;12.48;6.80;;;0.70;71.20;;;;;;5095825;28;20399;-61
2022/01/23 06:39:08;;;;;;;9.95;6.90;;;0.70;71.00;;;;;;5089423;28;20017;-61
2022/01/23 06:41:35;;;;;;;9.90;6.93;;;0.70;71.50;;;;;;5091997;28;20031;-60
2022/01/23 06:44:01;;;;;;;8.65;5.78;;;0.70;71.40;;;;;;5093171;28;20018;-62
2022/01/23 06:46:27;;;;;;;8.93;5.78;;;0.70;71.40;;;;;;5098663;28;20516;-61
2022/01/23 06:48:52;;;;;;;10.88;6.00;;;0.70;71.50;;;;;;5096087;28;20024;-62
2022/01/23 06:51:18;;;;;;;12.70;9.95;;;0.70;71.60;;;;;;5095636;28;20039;-62
2022/01/23 06:53:44;;;;;;;12.65;7.43;;;0.80;71.70;;;;;;5088367;28;20481;-61
2022/01/23 06:56:10;;;;;;;11.68;9.68;;;0.80;71.50;;;;;;5095637;28;20024;-61
2022/01/23 06:58:36;;;;;;;9.27;6.97;;;0.80;71.50;;;;;;5095752;28;20032;-62
2022/01/23 07:01:01;;;;;;;9.07;7.13;;;0.80;71.30;;;;;;5081123;28;20032;-62
2022/01/23 07:03:28;;;;;;;6.80;5.45;;;0.80;71.30;;;;;;5095351;28;20388;-62
2022/01/23 07:05:53;;;;;;;11.70;9.85;;;0.80;71.50;;;;;;5095486;28;20046;-61
2022/01/23 07:08:19;;;;;;;10.18;6.75;;;0.90;71.40;;;;;;5095416;28;20016;-61
2022/01/23 07:10:45;;;;;;;10.80;9.70;;;0.90;71.10;;;;;;5095440;28;20032;-61
2022/01/23 07:13:10;;;;;;;8.63;6.70;;;1.00;71.30;;;;;;5095487;28;20028;-61
2022/01/23 07:15:36;;;;;;;10.98;5.80;;;1.00;71.10;;;;;;5091850;28;20496;-61
2022/01/23 07:18:02;;;;;;;11.50;8.48;;;0.90;71.30;;;;;;5083112;28;20028;-61
2022/01/23 07:20:27;;;;;;;9.75;6.60;;;1.00;71.20;;;;;;5095100;28;20066;-62
2022/01/23 07:22:54;;;;;;;10.52;8.80;;;1.00;71.00;;;;;;5092106;28;20024;-62
2022/01/23 07:25:20;;;;;;;9.35;6.03;;;1.10;71.10;;;;;;5104192;28;20028;-61
2022/01/23 07:27:56;;;;;;;7.05;5.07;;;1.10;70.90;;;;;;5106248;28;20032;-61
2022/01/23 07:30:29;;;;;;;9.13;7.53;;;1.10;71.00;;;;;;5095452;28;20043;-61
2022/01/23 07:32:55;;;;;;;8.10;5.70;;;1.20;70.80;;;;;;5095227;28;20025;-61
2022/01/23 07:35:21;;;;;;;8.73;5.35;;;1.20;70.40;;;;;;5092014;28;20023;-62
2022/01/23 07:37:47;;;;;;;9.40;5.55;;;1.10;70.40;;;;;;5093941;28;20051;-62
2022/01/23 07:40:12;;;;;;;7.07;5.22;;;1.20;70.50;;;;;;5092850;28;20031;-62
2022/01/23 07:42:39;;;;;;;10.05;7.70;;;1.20;70.40;;;;;;5093348;28;20495;-62
2022/01/23 07:45:06;;;;;;;11.93;5.85;;;1.20;70.10;;;;;;5076538;28;20027;-61
2022/01/23 07:47:31;;;;;;;9.30;8.02;;;1.20;69.90;;;;;;5094663;28;20099;-62
2022/01/23 07:49:57;;;;;;;8.80;6.18;;;1.30;69.80;;;;;;5094908;28;20110;-61
2022/01/23 07:52:23;;;;;;;9.80;8.00;;;1.30;69.50;;;;;;5086739;28;20035;-61
2022/01/23 07:54:49;;;;;;;7.72;5.47;;;1.30;69.30;;;;;;5085330;28;20024;-61
2022/01/23 07:57:14;;;;;;;8.70;5.38;;;1.20;69.10;;;;;;5094441;28;20028;-61
2022/01/23 07:59:40;;;;;;;7.82;5.82;;;1.10;69.20;;;;;;5094368;28;20380;-60
2022/01/23 08:02:06;;;;;;;9.20;8.23;;;1.10;69.50;;;;;;5093845;28;20036;-61
2022/01/23 08:04:31;;;;;;;9.25;8.18;;;1.10;69.40;;;;;;5093784;28;20035;-61
2022/01/23 08:07:19;;;;;;;8.80;5.38;;;1.10;69.20;;;;;;5094267;28;20030;-61
2022/01/23 08:09:45;;;;;;;9.88;8.20;;;1.00;69.10;;;;;;5093808;28;20032;-60
2022/01/23 08:12:11;;;;;;;7.82;5.60;;;1.10;69.50;;;;;;5094115;28;20038;-61
2022/01/23 08:14:36;;;;;;;7.85;5.40;;;0.90;69.30;;;;;;5094185;28;20382;-62
2022/01/23 08:17:02;;;;;;;8.73;7.72;;;0.90;69.60;;;;;;5094043;28;20024;-62
2022/01/23 08:19:28;;;;;;;8.18;5.32;;;0.90;69.80;;;;;;5093636;28;20424;-61
2022/01/23 08:21:53;;;;;;;7.38;5.15;;;0.90;69.70;;;;;;5088622;28;20046;-61
2022/01/23 08:24:19;;;;;;;6.45;4.78;;;0.80;69.80;;;;;;5089752;28;20027;-61
2022/01/23 08:26:45;;;;;;;8.30;5.35;;;0.80;70.00;;;;;;5097268;28;20028;-61
2022/01/23 08:29:10;;;;;;;6.65;4.53;;;0.80;70.20;;;;;;5094106;28;20020;-61
2022/01/23 08:31:36;;;;;;;6.53;4.95;;;0.80;70.40;;;;;;5093913;28;20502;-61
2022/01/23 08:34:02;;;;;;;9.02;8.13;;;0.80;70.50;;;;;;5093714;28;20119;-61
2022/01/23 08:36:29;;;;;;;7.78;5.40;;;0.90;70.50;;;;;;5093710;28;20383;-61
2022/01/23 08:38:55;;;;;;;8.25;5.00;;;1.00;70.40;;;;;;5071256;28;20027;-61
2022/01/23 08:43:51;;;;;;;7.60;4.68;;;1.00;70.50;;;;;;5076027;28;20042;-61
2022/01/23 08:46:17;;;;;;;7.43;5.18;;;1.10;71.10;;;;;;5093605;28;20099;-61
2022/01/23 08:48:43;;;;;;;6.75;4.65;;;1.10;70.50;;;;;;5093487;28;20161;-61
2022/01/23 08:51:10;;;;;;;8.77;7.65;;;1.20;70.60;;;;;;5093282;28;20016;-61
2022/01/23 08:53:37;;;;;;;7.70;5.25;;;1.30;70.40;;;;;;5092805;28;20032;-61
2022/01/23 08:56:03;;;;;;;7.82;5.50;;;1.40;70.00;;;;;;5093627;28;20028;-62
2022/01/23 08:58:29;;;;;;;8.75;6.85;;;1.50;70.20;;;;;;5091792;28;20024;-61
2022/01/23 09:00:54;;;;;;;7.80;5.20;;;1.50;69.80;;;;;;5090512;28;20028;-62
2022/01/23 09:03:20;;;;;;;8.10;5.90;;;1.60;69.30;;;;;;5093445;28;20022;-61
2022/01/23 09:05:46;;;;;;;9.23;7.70;;;1.50;69.40;;;;;;5093306;28;20026;-62
2022/01/23 09:08:11;;;;;;;8.93;8.00;;;1.70;69.40;;;;;;5093314;28;20024;-61
2022/01/23 09:10:42;;;;;;;8.40;6.05;;;1.80;68.60;;;;;;5093304;28;20361;-61
2022/01/23 09:15:35;;;;;;;7.82;5.10;;;1.70;68.60;;;;;;5091450;28;20480;-61
2022/01/23 09:18:01;;;;;;;6.45;5.07;;;1.70;68.70;;;;;;5093199;28;20122;-61
2022/01/23 09:20:27;;;;;;;7.07;5.28;;;1.80;68.70;;;;;;5092963;28;20403;-61
2022/01/23 09:22:53;;;;;;;5.82;4.63;;;1.80;68.80;;;;;;5088493;28;20024;-61
2022/01/23 09:25:19;;;;;;;9.23;7.65;;;1.80;68.80;;;;;;5099729;28;20024;-61
2022/01/23 09:27:45;;;;;;;7.95;5.43;;;1.80;68.60;;;;;;5089373;28;20498;-61
2022/01/23 09:30:19;;;;;;;8.40;4.47;;;1.90;68.50;;;;;;5088387;28;20020;-61
2022/01/23 09:32:46;;;;;;;8.85;5.07;;;1.90;68.60;;;;;;5096713;28;20043;-61
2022/01/23 09:35:12;;;;;;;7.78;6.97;;;1.90;68.70;;;;;;5095857;28;20032;-62
2022/01/23 09:37:38;;;;;;;8.65;5.60;;;2.00;68.60;;;;;;5097145;28;20060;-61
2022/01/23 09:40:05;;;;;;;6.10;4.57;;;2.00;68.20;;;;;;5083429;28;20055;-61
2022/01/23 09:42:41;;;;;;;8.23;7.38;;;2.00;68.40;;;;;;5097165;28;20028;-61
2022/01/23 09:45:10;;;;;;;7.43;5.35;;;2.10;67.90;;;;;;5096985;28;20367;-61
2022/01/23 09:47:37;;;;;;;6.13;5.03;;;2.20;68.00;;;;;;5107857;28;20036;-62
2022/01/23 09:50:05;;;;;;;6.55;5.28;;;2.20;68.20;;;;;;5096375;28;20024;-62
2022/01/23 09:52:34;;;;;;;6.60;4.72;;;2.30;68.30;;;;;;5082788;28;20529;-62
2022/01/23 09:55:09;;;;;;;7.70;4.97;;;2.30;68.20;;;;;;5096669;28;20468;-61
2022/01/23 09:57:43;;;;;;;8.27;5.57;;;2.30;68.20;;;;;;5096971;28;20024;-62
2022/01/23 10:00:12;;;;;;;8.43;7.53;;;2.40;68.30;;;;;;5096623;28;20020;-61
2022/01/23 10:02:38;;;;;;;8.23;5.57;;;2.50;67.80;;;;;;5096801;28;20027;-62
2022/01/23 10:05:05;;;;;;;8.30;7.50;;;2.50;67.50;;;;;;5096510;28;20016;-61
2022/01/23 10:07:36;;;;;;;7.07;5.32;;;2.60;66.90;;;;;;5090613;28;20060;-61
2022/01/23 10:10:22;;;;;;;8.90;6.33;;;2.60;66.60;;;;;;5096463;28;20027;-61
2022/01/23 10:12:50;;;;;;;7.93;7.10;;;2.60;66.60;;;;;;5096461;28;20020;-61
2022/01/23 10:15:17;;;;;;;7.88;5.38;;;2.60;66.70;;;;;;5096881;28;20138;-61
2022/01/23 10:17:43;;;;;;;5.93;4.97;;;2.60;66.50;;;;;;5096623;28;20047;-61
2022/01/23 10:20:11;;;;;;;7.10;5.10;;;2.60;66.50;;;;;;5092355;28;20036;-62
2022/01/23 10:22:37;;;;;;;9.02;7.90;;;2.60;66.60;;;;;;5066459;28;20385;-61
2022/01/23 10:25:17;;;;;;;8.48;7.57;;;2.60;66.30;;;;;;5082486;28;20031;-61
2022/01/23 10:28:05;;;;;;;8.07;5.70;;;2.60;66.10;;;;;;5076083;28;20024;-61
2022/01/23 10:30:40;;;;;;;7.63;5.32;;;2.60;66.10;;;;;;5063056;28;20020;-61
2022/01/23 10:33:14;;;;;;;6.63;5.05;;;2.50;66.60;;;;;;5071466;28;20032;-61
2022/01/23 10:36:00;;;;;;;9.23;7.57;;;2.50;66.80;;;;;;5070891;28;20099;-62
2022/01/23 10:38:31;;;;;;;7.97;5.13;;;2.60;66.50;;;;;;5074591;28;20426;-62
2022/01/23 10:41:28;;;;;;;6.00;4.95;;;2.60;66.60;;;;;;5070004;28;20385;-62
2022/01/23 10:49:49;;;;;;;6.05;4.32;;;2.60;67.00;;;;;;5075479;28;20392;-61
2022/01/23 10:52:30;;;;;;;8.68;7.20;;;2.60;67.00;;;;;;5056573;28;20025;-61
2022/01/23 10:54:56;;;;;;;8.47;4.90;;;2.70;66.50;;;;;;5075677;28;20032;-61
2022/01/23 10:57:22;;;;;;;7.53;4.90;;;2.60;66.40;;;;;;5074604;28;20035;-61
2022/01/23 10:59:52;;;;;;;7.65;4.80;;;2.60;66.60;;;;;;5067040;28;20040;-61
2022/01/23 11:02:23;;;;;;;9.13;7.20;;;2.60;66.80;;;;;;5075502;28;20420;-61
2022/01/23 11:05:04;;;;;;;8.70;7.80;;;2.70;66.60;;;;;;5075277;28;20020;-61
2022/01/23 11:07:31;;;;;;;7.87;5.33;;;2.70;66.00;;;;;;5075275;28;20377;-61
2022/01/23 11:09:58;;;;;;;7.15;4.82;;;2.70;65.90;;;;;;5075041;28;20744;-61
2022/01/23 11:18:03;;;;;;;7.45;5.15;;;2.50;66.00;;;;;;5063553;28;20420;-61
2022/01/23 11:20:36;;;;;;;6.97;4.80;;;2.50;66.30;;;;;;5081418;28;20055;-61
2022/01/23 11:23:11;;;;;;;8.35;7.47;;;2.40;66.80;;;;;;5082087;28;20027;-61
2022/01/23 11:25:39;;;;;;;7.30;4.75;;;2.50;66.40;;;;;;5106066;28;20017;-61
2022/01/23 11:28:05;;;;;;;10.40;5.25;;;2.40;66.10;;;;;;5083910;28;20021;-61
2022/01/23 11:30:39;;;;;;;7.78;7.00;;;2.40;66.40;;;;;;5095016;28;20471;-62
2022/01/23 11:33:08;;;;;;;7.55;4.50;;;2.40;66.50;;;;;;5081624;28;20229;-62
2022/01/23 11:35:34;;;;;;;9.68;7.65;;;2.40;66.40;;;;;;5095164;28;20028;-62
2022/01/23 11:38:00;;;;;;;8.02;5.28;;;2.40;66.50;;;;;;5090204;28;20460;-61
2022/01/23 11:54:02;;;;;;;8.40;5.35;;;2.40;66.80;;;;;;5082480;28;20548;-61
2022/01/23 11:56:28;;;;;;;8.38;5.55;;;2.30;66.60;;;;;;5094509;28;20114;-61
2022/01/23 11:59:14;;;;;;;9.23;8.05;;;2.30;66.70;;;;;;5094801;28;20022;-62
2022/01/23 12:01:42;;;;;;;10.07;6.32;;;2.30;66.70;;;;;;5094270;28;20028;-61
2022/01/23 12:04:08;;;;;;;11.90;9.48;;;2.20;66.40;;;;;;5094818;28;20028;-61
2022/01/23 12:06:36;;;;;;;11.68;10.18;;;2.20;66.60;;;;;;5089037;28;20020;-62
2022/01/23 12:09:17;;;;;;;11.50;7.38;;;2.20;66.60;;;;;;5093566;28;20065;-61
2022/01/23 12:12:36;;;;;;;9.73;5.88;;;2.10;66.70;;;;;;5094282;28;20020;-62
2022/01/23 12:18:16;;;;;;;11.68;6.57;;;2.00;66.80;;;;;;5094281;28;20119;-61
2022/01/23 12:20:44;;;;;;;9.73;6.28;;;1.90;66.80;;;;;;5098751;28;20487;-62
2022/01/23 12:23:11;;;;;;;11.82;10.02;;;1.90;66.90;;;;;;5083372;28;20012;-61
2022/01/23 12:25:49;;;;;;;10.02;7.38;;;1.90;67.20;;;;;;5093911;28;20028;-61
2022/01/23 12:28:32;;;;;;;9.07;6.00;;;1.80;67.10;;;;;;5094111;28;20030;-61
2022/01/23 12:31:01;;;;;;;11.15;9.95;;;1.80;67.30;;;;;;5093787;28;20031;-61
2022/01/23 12:33:29;;;;;;;11.10;7.40;;;1.90;67.50;;;;;;5093811;28;20434;-61
2022/01/23 12:36:02;;;;;;;11.50;7.25;;;1.80;67.50;;;;;;5093991;28;20030;-61
2022/01/23 12:38:31;;;;;;;10.98;7.03;;;1.80;67.40;;;;;;5085391;28;20093;-61
2022/01/23 12:41:17;;;;;;;10.05;6.88;;;1.70;67.40;;;;;;5080826;28;20034;-61
2022/01/23 12:43:43;;;;;;;11.18;7.28;;;1.60;67.50;;;;;;5078292;28;20045;-61
2022/01/23 12:46:11;;;;;;;13.60;6.82;;;1.60;67.60;;;;;;5076024;28;20388;-61
2022/01/23 12:48:45;;;;;;;10.40;6.80;;;1.60;67.50;;;;;;5093937;28;20027;-61
2022/01/23 12:51:13;;;;;;;10.70;7.43;;;1.50;67.70;;;;;;5093523;28;20032;-61
2022/01/23 12:53:45;;;;;;;10.85;6.97;;;1.50;67.90;;;;;;5092860;28;20110;-61
2022/01/23 12:56:18;;;;;;;9.57;6.47;;;1.50;68.00;;;;;;5093463;28;20495;-61
2022/01/23 12:58:59;;;;;;;11.20;7.18;;;1.40;68.10;;;;;;5087251;28;20024;-61
2022/01/23 13:01:28;;;;;;;8.40;6.37;;;1.40;68.40;;;;;;5083291;28;20118;-62
2022/01/23 13:03:54;;;;;;;11.93;7.07;;;1.30;68.40;;;;;;5091812;28;20008;-61
2022/01/23 13:06:28;;;;;;;12.18;10.05;;;1.30;68.60;;;;;;5092227;28;20440;-61
2022/01/23 13:12:28;;;;;;;10.88;6.63;;;1.30;68.40;;;;;;5083215;28;20067;-61
2022/01/23 13:31:43;;;;;;;12.38;6.93;;;1.20;69.00;;;;;;5082025;28;20035;-61
2022/01/23 13:34:27;;;;;;;12.82;7.22;;;1.10;69.70;;;;;;5087536;28;20050;-61
2022/01/23 13:37:21;;;;;;;9.40;6.55;;;1.20;69.20;;;;;;5092390;28;20059;-61
2022/01/23 13:39:57;;;;;;;12.50;10.65;;;1.10;69.10;;;;;;5086380;28;20484;-61
2022/01/23 13:59:52;;;;;;;11.13;7.93;;;1.10;69.70;;;;;;5082488;28;20376;-61
2022/01/23 14:02:43;;;;;;;14.57;12.05;;;1.00;69.50;;;;;;5077771;28;20021;-61
2022/01/23 14:05:30;;;;;;;14.55;7.55;;;1.00;69.80;;;;;;5074660;28;20059;-61
2022/01/23 14:07:59;;;;;;;14.40;7.38;;;0.90;69.60;;;;;;5081805;28;20059;-61
2022/01/23 14:10:30;;;;;;;16.00;12.23;;;0.80;69.80;;;;;;5077965;28;20070;-61
2022/01/23 14:13:10;;;;;;;11.52;7.40;;;0.80;70.20;;;;;;5073286;28;20111;-61
2022/01/23 14:15:47;;;;;;;14.75;11.60;;;0.70;70.10;;;;;;5081952;28;20023;-61
2022/01/23 14:18:19;;;;;;;12.57;6.82;;;0.70;70.50;;;;;;5084759;28;20035;-60
2022/01/23 14:21:11;;;;;;;15.90;12.50;;;0.60;70.20;;;;;;5087691;28;21998;-61
2022/01/23 14:23:37;;;;;;;14.68;12.32;;;0.60;70.70;;;;;;5094452;28;20034;-61
2022/01/23 14:26:09;;;;;;;13.02;7.78;;;0.60;70.70;;;;;;5084032;28;20020;-61
2022/01/23 14:28:41;;;;;;;13.18;11.27;;;0.50;70.60;;;;;;5090793;28;20056;-61
2022/01/23 14:31:14;;;;;;;11.63;7.40;;;0.50;71.00;;;;;;5084902;28;20024;-60
2022/01/23 14:33:41;;;;;;;16.50;12.05;;;0.30;70.80;;;;;;5096376;28;20020;-60
2022/01/23 14:36:18;;;;;;;13.40;11.60;;;0.30;71.10;;;;;;5086274;28;20033;-61
2022/01/23 14:38:55;;;;;;;15.40;12.70;;;0.30;71.10;;;;;;5083907;28;20024;-61
2022/01/23 14:41:24;;;;;;;12.43;7.60;;;0.30;71.40;;;;;;5078142;28;20064;-61
2022/01/23 14:43:50;;;;;;;16.10;12.68;;;0.20;71.50;;;;;;5075639;28;20028;-61
2022/01/23 14:46:16;;;;;;;14.45;11.27;;;0.20;71.80;;;;;;5080671;28;20070;-61
2022/01/23 14:48:48;;;;;;;15.77;12.63;;;0.20;71.90;;;;;;5075317;28;20028;-61
2022/01/23 14:51:24;;;;;;;18.13;13.93;;;0.20;71.80;;;;;;5088826;28;20492;-61
2022/01/23 14:53:51;;;;;;;20.40;8.80;;;0.20;71.70;;;;;;5066690;28;20091;-61
2022/01/23 14:56:19;;;;;;;18.50;14.27;;;0.10;71.50;;;;;;5066645;28;20054;-61
2022/01/23 14:58:45;;;;;;;16.65;14.27;;;0.20;72.00;;;;;;5082237;28;20503;-61
2022/01/23 15:01:15;;;;;;;19.08;10.65;;;0.20;72.00;;;;;;5083594;28;20072;-61
2022/01/23 15:03:48;;;;;;;16.90;13.57;;;0.10;71.80;;;;;;5080830;28;20360;-61
2022/01/23 15:06:15;;;;;;;20.23;14.50;;;0.20;72.20;;;;;;5078011;28;20032;-61
2022/01/23 15:08:44;;;;;;;16.73;8.32;;;0.20;72.30;;;;;;5086059;28;20527;-61
2022/01/23 15:11:10;;;;;;;15.32;13.23;;;0.10;72.20;;;;;;5082744;28;20024;-61
2022/01/23 15:13:36;;;;;;;15.13;12.90;;;0.10;72.50;;;;;;5079579;28;20031;-61
2022/01/23 15:16:02;;;;;;;14.30;8.95;;;0.20;72.60;;;;;;5077887;28;20043;-61
2022/01/23 15:18:28;;;;;;;15.98;12.85;;;0.10;72.30;;;;;;5076034;28;20123;-61
2022/01/23 15:20:54;;;;;;;17.15;13.05;;;0.10;72.50;;;;;;5076351;28;20136;-61
2022/01/23 15:23:19;;;;;;;16.05;13.13;;;0.10;72.60;;;;;;5080966;28;20102;-62
2022/01/23 15:25:46;;;;;;;15.30;13.00;;;0.20;72.90;;;;;;5080487;28;20107;-60
2022/01/23 15:28:12;;;;;;;17.63;13.80;;;0.10;72.80;;;;;;5080645;28;20388;-60
2022/01/23 15:30:38;;;;;;;19.65;14.45;;;0.10;72.70;;;;;;5074930;28;20016;-60
2022/01/23 15:33:09;;;;;;;16.77;14.23;;;0.10;72.90;;;;;;5088116;28;20069;-60
2022/01/23 15:35:44;;;;;;;17.98;14.10;;;0.10;72.80;;;;;;5089041;28;20064;-60
2022/01/23 15:38:09;;;;;;;18.17;13.77;;;0.10;72.80;;;;;;5081616;28;20527;-59
2022/01/23 15:40:35;;;;;;;17.40;10.18;;;0.00;72.80;;;;;;5078869;28;20123;-59
2022/01/23 15:43:01;;;;;;;18.75;15.18;;;0.00;72.80;;;;;;5079611;28;20044;-59
2022/01/23 15:45:26;;;;;;;20.45;9.55;;;0.00;73.20;;;;;;5086708;28;20527;-60
2022/01/23 15:47:52;;;;;;;17.83;14.10;;;-0.10;73.10;;;;;;5081032;28;20047;-60
2022/01/23 15:50:21;;;;;;;18.92;15.52;;;-0.10;73.40;;;;;;5065295;28;20017;-60
2022/01/23 15:52:48;;;;;;;19.80;14.25;;;0.00;73.40;;;;;;5079802;28;20036;-60
2022/01/23 15:55:16;;;;;;;17.90;14.15;;;0.00;73.40;;;;;;5083935;28;20032;-60
2022/01/23 15:57:43;;;;;;;20.63;10.38;;;0.00;73.30;;;;;;5081262;28;20476;-60
2022/01/23 16:00:11;;;;;;;18.92;15.38;;;0.00;73.30;;;;;;5084585;28;20472;-60
2022/01/23 16:02:36;;;;;;;20.75;15.43;;;0.00;73.50;;;;;;5081256;28;20028;-60
2022/01/23 16:05:03;;;;;;;21.42;15.38;;;0.10;73.60;;;;;;5076909;28;20027;-60
2022/01/23 16:07:29;;;;;;;19.73;15.27;;;0.10;73.60;;;;;;5082282;28;20424;-59
2022/01/23 16:09:55;;;;;;;18.83;15.27;;;0.10;73.60;;;;;;5083203;28;20017;-60
2022/01/23 16:12:21;;;;;;;15.98;10.32;;;0.20;73.60;;;;;;5086468;28;20036;-60
2022/01/23 16:14:46;;;;;;;17.90;14.32;;;0.10;73.40;;;;;;5081511;28;20473;-60
2022/01/23 16:17:12;;;;;;;18.58;15.57;;;0.20;73.80;;;;;;5084859;28;20032;-60
2022/01/23 16:19:38;;;;;;;20.67;16.27;;;0.20;73.70;;;;;;5078498;28;20035;-60
2022/01/23 16:22:04;;;;;;;18.35;8.93;;;0.20;73.80;;;;;;5076984;28;20048;-60
2022/01/23 16:24:31;;;;;;;17.63;14.80;;;0.20;73.60;;;;;;5077179;28;20028;-59
2022/01/23 16:26:57;;;;;;;15.10;9.27;;;0.30;73.90;;;;;;5076071;28;20028;-60
2022/01/23 16:29:25;;;;;;;18.17;14.95;;;0.30;73.70;;;;;;5091592;28;20027;-59
2022/01/23 16:31:54;;;;;;;16.50;9.65;;;0.30;73.70;;;;;;5092654;28;20020;-60
2022/01/23 16:34:20;;;;;;;19.40;15.32;;;0.30;73.40;;;;;;5086554;28;20020;-60
2022/01/23 16:36:46;;;;;;;21.13;10.45;;;0.30;73.40;;;;;;5083934;28;20046;-60
2022/01/23 16:39:14;;;;;;;15.32;8.43;;;0.20;73.20;;;;;;5081169;28;20051;-59
2022/01/23 16:41:41;;;;;;;17.25;13.50;;;0.10;73.30;;;;;;5091590;28;20384;-60
2022/01/23 16:44:06;;;;;;;15.52;9.13;;;0.20;73.60;;;;;;5081968;28;20081;-60
2022/01/23 16:46:35;;;;;;;16.58;8.65;;;0.10;73.50;;;;;;5079169;28;20024;-60